sensor_id;sensor_type;location;lat;lon;timestamp;P1;durP1;ratioP1;P2;durP2;ratioP2
37297;SDS011;30517;51.932;4.278;2022-12-04T00:01:52;22.83;;;11.32;;
37297;SDS011;30517;51.932;4.278;2022-12-04T00:04:32;21.65;;;10.45;;
37297;SDS011;30517;51.932;4.278;2022-12-04T00:07:13;22.85;;;11.80;;
37297;SDS011;30517;51.932;4.278;2022-12-04T00:09:54;22.92;;;10.77;;
37297;SDS011;30517;51.932;4.278;2022-12-04T00:12:35;21.20;;;11.43;;
37297;SDS011;30517;51.932;4.278;2022-12-04T00:15:16;22.67;;;11.90;;
37297;SDS011;30517;51.932;4.278;2022-12-04T00:17:56;25.55;;;12.75;;
37297;SDS011;30517;51.932;4.278;2022-12-04T00:20:38;22.55;;;12.10;;
37297;SDS011;30517;51.932;4.278;2022-12-04T00:23:19;24.20;;;12.52;;
37297;SDS011;30517;51.932;4.278;2022-12-04T00:26:01;22.83;;;11.68;;
37297;SDS011;30517;51.932;4.278;2022-12-04T00:28:46;25.52;;;11.40;;
37297;SDS011;30517;51.932;4.278;2022-12-04T00:31:28;24.08;;;12.35;;
37297;SDS011;30517;51.932;4.278;2022-12-04T00:34:09;19.98;;;10.27;;
37297;SDS011;30517;51.932;4.278;2022-12-04T00:36:50;19.63;;;10.32;;
37297;SDS011;30517;51.932;4.278;2022-12-04T00:39:31;23.55;;;11.40;;
37297;SDS011;30517;51.932;4.278;2022-12-04T00:42:12;24.80;;;12.48;;
37297;SDS011;30517;51.932;4.278;2022-12-04T00:44:52;21.38;;;11.25;;
37297;SDS011;30517;51.932;4.278;2022-12-04T00:47:33;21.92;;;11.63;;
37297;SDS011;30517;51.932;4.278;2022-12-04T00:50:14;22.80;;;11.35;;
37297;SDS011;30517;51.932;4.278;2022-12-04T00:52:55;24.15;;;12.18;;
37297;SDS011;30517;51.932;4.278;2022-12-04T00:55:37;22.25;;;11.40;;
37297;SDS011;30517;51.932;4.278;2022-12-04T00:58:18;23.27;;;12.00;;
37297;SDS011;30517;51.932;4.278;2022-12-04T01:01:03;21.60;;;12.13;;
37297;SDS011;30517;51.932;4.278;2022-12-04T01:03:49;22.00;;;12.07;;
37297;SDS011;30517;51.932;4.278;2022-12-04T01:06:31;20.48;;;12.52;;
37297;SDS011;30517;51.932;4.278;2022-12-04T01:09:13;23.42;;;11.88;;
37297;SDS011;30517;51.932;4.278;2022-12-04T01:11:54;23.38;;;13.27;;
37297;SDS011;30517;51.932;4.278;2022-12-04T01:14:35;22.80;;;11.38;;
37297;SDS011;30517;51.932;4.278;2022-12-04T01:17:15;24.48;;;12.38;;
37297;SDS011;30517;51.932;4.278;2022-12-04T01:19:56;22.58;;;11.30;;
37297;SDS011;30517;51.932;4.278;2022-12-04T01:22:37;24.83;;;12.32;;
37297;SDS011;30517;51.932;4.278;2022-12-04T01:25:18;21.65;;;12.57;;
37297;SDS011;30517;51.932;4.278;2022-12-04T01:27:59;27.33;;;14.07;;
37297;SDS011;30517;51.932;4.278;2022-12-04T01:30:39;20.30;;;10.68;;
37297;SDS011;30517;51.932;4.278;2022-12-04T01:33:20;23.20;;;12.05;;
37297;SDS011;30517;51.932;4.278;2022-12-04T01:36:02;25.60;;;13.20;;
37297;SDS011;30517;51.932;4.278;2022-12-04T01:38:44;23.23;;;11.77;;
37297;SDS011;30517;51.932;4.278;2022-12-04T01:41:26;25.42;;;12.60;;
37297;SDS011;30517;51.932;4.278;2022-12-04T01:44:22;20.85;;;10.48;;
37297;SDS011;30517;51.932;4.278;2022-12-04T01:47:04;24.42;;;12.35;;
37297;SDS011;30517;51.932;4.278;2022-12-04T01:49:46;26.88;;;12.82;;
37297;SDS011;30517;51.932;4.278;2022-12-04T01:52:28;23.90;;;11.38;;
37297;SDS011;30517;51.932;4.278;2022-12-04T01:55:08;21.05;;;11.48;;
37297;SDS011;30517;51.932;4.278;2022-12-04T01:57:49;24.27;;;12.95;;
37297;SDS011;30517;51.932;4.278;2022-12-04T02:00:30;24.65;;;11.90;;
37297;SDS011;30517;51.932;4.278;2022-12-04T02:03:11;23.05;;;11.48;;
37297;SDS011;30517;51.932;4.278;2022-12-04T02:05:53;22.40;;;10.93;;
37297;SDS011;30517;51.932;4.278;2022-12-04T02:08:34;23.92;;;12.25;;
37297;SDS011;30517;51.932;4.278;2022-12-04T02:16:47;21.15;;;12.07;;
37297;SDS011;30517;51.932;4.278;2022-12-04T02:25:34;24.17;;;12.57;;
37297;SDS011;30517;51.932;4.278;2022-12-04T02:28:43;24.95;;;12.32;;
37297;SDS011;30517;51.932;4.278;2022-12-04T02:31:36;21.90;;;11.70;;
37297;SDS011;30517;51.932;4.278;2022-12-04T02:34:40;25.33;;;13.38;;
37297;SDS011;30517;51.932;4.278;2022-12-04T02:37:32;23.92;;;12.10;;
37297;SDS011;30517;51.932;4.278;2022-12-04T02:40:24;22.58;;;12.07;;
37297;SDS011;30517;51.932;4.278;2022-12-04T02:43:14;24.55;;;12.27;;
37297;SDS011;30517;51.932;4.278;2022-12-04T02:46:02;21.40;;;12.15;;
37297;SDS011;30517;51.932;4.278;2022-12-04T02:48:48;23.73;;;11.75;;
37297;SDS011;30517;51.932;4.278;2022-12-04T02:51:31;24.42;;;12.13;;
37297;SDS011;30517;51.932;4.278;2022-12-04T02:54:17;23.63;;;12.82;;
37297;SDS011;30517;51.932;4.278;2022-12-04T02:57:10;24.60;;;11.68;;
37297;SDS011;30517;51.932;4.278;2022-12-04T02:59:56;23.15;;;12.10;;
37297;SDS011;30517;51.932;4.278;2022-12-04T03:02:40;25.13;;;12.18;;
37297;SDS011;30517;51.932;4.278;2022-12-04T03:05:31;22.90;;;12.65;;
37297;SDS011;30517;51.932;4.278;2022-12-04T03:08:18;22.23;;;11.95;;
37297;SDS011;30517;51.932;4.278;2022-12-04T03:11:04;24.75;;;12.43;;
37297;SDS011;30517;51.932;4.278;2022-12-04T03:13:56;28.05;;;13.02;;
37297;SDS011;30517;51.932;4.278;2022-12-04T03:16:47;24.95;;;12.20;;
37297;SDS011;30517;51.932;4.278;2022-12-04T03:19:36;23.20;;;12.43;;
37297;SDS011;30517;51.932;4.278;2022-12-04T03:22:21;22.77;;;12.52;;
37297;SDS011;30517;51.932;4.278;2022-12-04T03:25:03;23.58;;;12.20;;
37297;SDS011;30517;51.932;4.278;2022-12-04T03:27:48;21.70;;;11.88;;
37297;SDS011;30517;51.932;4.278;2022-12-04T03:30:35;24.13;;;12.23;;
37297;SDS011;30517;51.932;4.278;2022-12-04T03:33:24;24.60;;;12.60;;
37297;SDS011;30517;51.932;4.278;2022-12-04T03:36:19;24.88;;;13.07;;
37297;SDS011;30517;51.932;4.278;2022-12-04T03:39:08;27.70;;;14.00;;
37297;SDS011;30517;51.932;4.278;2022-12-04T03:47:52;26.15;;;13.40;;
37297;SDS011;30517;51.932;4.278;2022-12-04T03:50:40;20.88;;;12.50;;
37297;SDS011;30517;51.932;4.278;2022-12-04T03:56:54;31.75;;;13.02;;
37297;SDS011;30517;51.932;4.278;2022-12-04T04:02:47;24.40;;;13.85;;
37297;SDS011;30517;51.932;4.278;2022-12-04T04:05:30;25.73;;;12.88;;
37297;SDS011;30517;51.932;4.278;2022-12-04T04:14:39;24.10;;;12.52;;
37297;SDS011;30517;51.932;4.278;2022-12-04T04:18:08;24.25;;;12.43;;
37297;SDS011;30517;51.932;4.278;2022-12-04T04:21:08;26.17;;;13.18;;
37297;SDS011;30517;51.932;4.278;2022-12-04T04:24:09;27.65;;;14.07;;
37297;SDS011;30517;51.932;4.278;2022-12-04T04:26:58;24.48;;;13.48;;
37297;SDS011;30517;51.932;4.278;2022-12-04T04:29:40;26.30;;;13.57;;
37297;SDS011;30517;51.932;4.278;2022-12-04T04:32:27;27.63;;;14.55;;
37297;SDS011;30517;51.932;4.278;2022-12-04T04:38:19;25.60;;;13.23;;
37297;SDS011;30517;51.932;4.278;2022-12-04T04:44:30;27.75;;;14.35;;
37297;SDS011;30517;51.932;4.278;2022-12-04T04:47:09;28.00;;;14.40;;
37297;SDS011;30517;51.932;4.278;2022-12-04T04:49:57;25.65;;;13.23;;
37297;SDS011;30517;51.932;4.278;2022-12-04T04:52:43;25.13;;;12.75;;
37297;SDS011;30517;51.932;4.278;2022-12-04T04:55:27;28.48;;;14.43;;
37297;SDS011;30517;51.932;4.278;2022-12-04T04:58:14;31.65;;;14.05;;
37297;SDS011;30517;51.932;4.278;2022-12-04T05:01:01;28.33;;;13.85;;
37297;SDS011;30517;51.932;4.278;2022-12-04T05:03:45;25.63;;;14.52;;
37297;SDS011;30517;51.932;4.278;2022-12-04T05:06:26;26.63;;;14.05;;
37297;SDS011;30517;51.932;4.278;2022-12-04T05:09:06;24.67;;;14.75;;
37297;SDS011;30517;51.932;4.278;2022-12-04T05:11:47;24.88;;;13.40;;
37297;SDS011;30517;51.932;4.278;2022-12-04T05:14:28;25.20;;;13.82;;
37297;SDS011;30517;51.932;4.278;2022-12-04T05:17:09;28.63;;;14.10;;
37297;SDS011;30517;51.932;4.278;2022-12-04T05:19:49;24.75;;;12.93;;
37297;SDS011;30517;51.932;4.278;2022-12-04T05:22:34;29.70;;;14.80;;
37297;SDS011;30517;51.932;4.278;2022-12-04T05:25:16;27.63;;;14.10;;
37297;SDS011;30517;51.932;4.278;2022-12-04T05:27:56;26.65;;;14.48;;
37297;SDS011;30517;51.932;4.278;2022-12-04T05:30:37;26.05;;;13.38;;
37297;SDS011;30517;51.932;4.278;2022-12-04T05:33:18;29.00;;;15.82;;
37297;SDS011;30517;51.932;4.278;2022-12-04T05:36:00;23.73;;;13.00;;
37297;SDS011;30517;51.932;4.278;2022-12-04T05:38:43;26.45;;;14.43;;
37297;SDS011;30517;51.932;4.278;2022-12-04T05:41:24;24.38;;;12.75;;
37297;SDS011;30517;51.932;4.278;2022-12-04T05:44:04;26.65;;;14.68;;
37297;SDS011;30517;51.932;4.278;2022-12-04T05:46:45;28.55;;;14.15;;
37297;SDS011;30517;51.932;4.278;2022-12-04T05:49:30;27.65;;;14.68;;
37297;SDS011;30517;51.932;4.278;2022-12-04T05:52:11;23.50;;;13.75;;
37297;SDS011;30517;51.932;4.278;2022-12-04T05:54:52;24.83;;;13.82;;
37297;SDS011;30517;51.932;4.278;2022-12-04T05:57:33;26.35;;;14.40;;
37297;SDS011;30517;51.932;4.278;2022-12-04T06:00:14;24.40;;;13.05;;
37297;SDS011;30517;51.932;4.278;2022-12-04T06:02:55;24.65;;;12.35;;
37297;SDS011;30517;51.932;4.278;2022-12-04T06:05:36;23.23;;;12.50;;
37297;SDS011;30517;51.932;4.278;2022-12-04T06:08:17;28.42;;;14.07;;
37297;SDS011;30517;51.932;4.278;2022-12-04T06:10:57;25.30;;;13.10;;
37297;SDS011;30517;51.932;4.278;2022-12-04T06:13:42;27.95;;;14.13;;
37297;SDS011;30517;51.932;4.278;2022-12-04T06:16:25;25.98;;;14.40;;
37297;SDS011;30517;51.932;4.278;2022-12-04T06:19:10;24.23;;;13.60;;
37297;SDS011;30517;51.932;4.278;2022-12-04T06:21:53;23.45;;;13.05;;
37297;SDS011;30517;51.932;4.278;2022-12-04T06:24:34;24.30;;;12.60;;
37297;SDS011;30517;51.932;4.278;2022-12-04T06:27:15;24.50;;;13.70;;
37297;SDS011;30517;51.932;4.278;2022-12-04T06:29:55;25.67;;;13.23;;
37297;SDS011;30517;51.932;4.278;2022-12-04T06:32:36;24.38;;;13.13;;
37297;SDS011;30517;51.932;4.278;2022-12-04T06:35:17;25.63;;;13.98;;
37297;SDS011;30517;51.932;4.278;2022-12-04T06:37:58;24.35;;;12.93;;
37297;SDS011;30517;51.932;4.278;2022-12-04T06:40:39;24.30;;;12.90;;
37297;SDS011;30517;51.932;4.278;2022-12-04T06:43:20;26.70;;;13.88;;
37297;SDS011;30517;51.932;4.278;2022-12-04T06:46:08;23.08;;;13.68;;
37297;SDS011;30517;51.932;4.278;2022-12-04T06:48:51;22.75;;;12.95;;
37297;SDS011;30517;51.932;4.278;2022-12-04T06:51:35;26.92;;;14.60;;
37297;SDS011;30517;51.932;4.278;2022-12-04T06:54:16;28.88;;;15.00;;
37297;SDS011;30517;51.932;4.278;2022-12-04T06:56:57;28.20;;;14.23;;
37297;SDS011;30517;51.932;4.278;2022-12-04T06:59:38;25.23;;;14.10;;
37297;SDS011;30517;51.932;4.278;2022-12-04T07:02:22;27.75;;;12.82;;
37297;SDS011;30517;51.932;4.278;2022-12-04T07:05:03;24.58;;;12.73;;
37297;SDS011;30517;51.932;4.278;2022-12-04T07:07:44;27.50;;;14.32;;
37297;SDS011;30517;51.932;4.278;2022-12-04T07:10:24;29.05;;;14.07;;
37297;SDS011;30517;51.932;4.278;2022-12-04T07:13:05;27.35;;;15.13;;
37297;SDS011;30517;51.932;4.278;2022-12-04T07:15:47;26.48;;;12.82;;
37297;SDS011;30517;51.932;4.278;2022-12-04T07:18:28;22.27;;;11.52;;
37297;SDS011;30517;51.932;4.278;2022-12-04T07:21:10;28.33;;;13.73;;
37297;SDS011;30517;51.932;4.278;2022-12-04T07:23:56;28.08;;;14.70;;
37297;SDS011;30517;51.932;4.278;2022-12-04T07:29:19;24.02;;;12.02;;
37297;SDS011;30517;51.932;4.278;2022-12-04T07:32:00;27.58;;;14.68;;
37297;SDS011;30517;51.932;4.278;2022-12-04T07:34:40;26.17;;;13.48;;
37297;SDS011;30517;51.932;4.278;2022-12-04T07:37:21;28.10;;;14.05;;
37297;SDS011;30517;51.932;4.278;2022-12-04T07:40:02;24.40;;;13.02;;
37297;SDS011;30517;51.932;4.278;2022-12-04T07:42:44;30.27;;;13.93;;
37297;SDS011;30517;51.932;4.278;2022-12-04T07:45:24;25.67;;;12.90;;
37297;SDS011;30517;51.932;4.278;2022-12-04T07:48:05;27.65;;;13.25;;
37297;SDS011;30517;51.932;4.278;2022-12-04T07:50:46;23.73;;;12.93;;
37297;SDS011;30517;51.932;4.278;2022-12-04T07:53:27;25.48;;;14.38;;
37297;SDS011;30517;51.932;4.278;2022-12-04T07:56:07;25.13;;;13.52;;
37297;SDS011;30517;51.932;4.278;2022-12-04T07:58:50;25.65;;;13.48;;
37297;SDS011;30517;51.932;4.278;2022-12-04T08:01:31;26.42;;;13.13;;
37297;SDS011;30517;51.932;4.278;2022-12-04T08:04:12;23.65;;;12.07;;
37297;SDS011;30517;51.932;4.278;2022-12-04T08:06:53;20.77;;;11.80;;
37297;SDS011;30517;51.932;4.278;2022-12-04T08:09:34;23.52;;;14.15;;
37297;SDS011;30517;51.932;4.278;2022-12-04T08:12:14;23.02;;;12.98;;
37297;SDS011;30517;51.932;4.278;2022-12-04T08:14:55;25.60;;;13.75;;
37297;SDS011;30517;51.932;4.278;2022-12-04T08:17:36;24.20;;;11.13;;
37297;SDS011;30517;51.932;4.278;2022-12-04T08:20:17;24.05;;;13.32;;
37297;SDS011;30517;51.932;4.278;2022-12-04T08:22:57;27.33;;;14.68;;
37297;SDS011;30517;51.932;4.278;2022-12-04T08:25:38;24.05;;;13.50;;
37297;SDS011;30517;51.932;4.278;2022-12-04T08:28:20;25.63;;;13.10;;
37297;SDS011;30517;51.932;4.278;2022-12-04T08:31:09;24.45;;;12.15;;
37297;SDS011;30517;51.932;4.278;2022-12-04T08:33:56;24.02;;;12.65;;
37297;SDS011;30517;51.932;4.278;2022-12-04T08:36:38;29.02;;;14.70;;
37297;SDS011;30517;51.932;4.278;2022-12-04T08:39:19;27.17;;;14.80;;
37297;SDS011;30517;51.932;4.278;2022-12-04T08:42:00;23.73;;;13.60;;
37297;SDS011;30517;51.932;4.278;2022-12-04T08:44:40;23.40;;;12.90;;
37297;SDS011;30517;51.932;4.278;2022-12-04T08:47:21;25.45;;;14.25;;
37297;SDS011;30517;51.932;4.278;2022-12-04T08:50:02;23.05;;;12.18;;
37297;SDS011;30517;51.932;4.278;2022-12-04T08:52:43;24.33;;;13.18;;
37297;SDS011;30517;51.932;4.278;2022-12-04T08:55:24;29.15;;;14.20;;
37297;SDS011;30517;51.932;4.278;2022-12-04T08:58:05;27.05;;;14.57;;
37297;SDS011;30517;51.932;4.278;2022-12-04T09:00:45;22.35;;;12.10;;
37297;SDS011;30517;51.932;4.278;2022-12-04T09:03:27;27.88;;;13.52;;
37297;SDS011;30517;51.932;4.278;2022-12-04T09:06:08;29.50;;;14.63;;
37297;SDS011;30517;51.932;4.278;2022-12-04T09:08:51;27.13;;;14.60;;
37297;SDS011;30517;51.932;4.278;2022-12-04T09:11:33;26.67;;;14.10;;
37297;SDS011;30517;51.932;4.278;2022-12-04T09:14:14;24.55;;;13.32;;
37297;SDS011;30517;51.932;4.278;2022-12-04T09:16:55;24.00;;;14.13;;
37297;SDS011;30517;51.932;4.278;2022-12-04T09:19:35;26.25;;;13.90;;
37297;SDS011;30517;51.932;4.278;2022-12-04T09:22:16;26.90;;;13.65;;
37297;SDS011;30517;51.932;4.278;2022-12-04T09:24:57;23.80;;;14.02;;
37297;SDS011;30517;51.932;4.278;2022-12-04T09:27:38;27.20;;;13.15;;
37297;SDS011;30517;51.932;4.278;2022-12-04T09:30:22;25.65;;;13.98;;
37297;SDS011;30517;51.932;4.278;2022-12-04T09:33:03;25.58;;;13.40;;
37297;SDS011;30517;51.932;4.278;2022-12-04T09:35:44;22.15;;;12.93;;
37297;SDS011;30517;51.932;4.278;2022-12-04T09:38:24;28.17;;;13.93;;
37297;SDS011;30517;51.932;4.278;2022-12-04T09:41:28;27.08;;;13.70;;
37297;SDS011;30517;51.932;4.278;2022-12-04T09:49:40;23.98;;;12.43;;
37297;SDS011;30517;51.932;4.278;2022-12-04T09:52:28;25.40;;;13.80;;
37297;SDS011;30517;51.932;4.278;2022-12-04T09:58:46;24.58;;;13.85;;
37297;SDS011;30517;51.932;4.278;2022-12-04T10:01:34;24.17;;;13.52;;
37297;SDS011;30517;51.932;4.278;2022-12-04T10:04:22;27.13;;;14.07;;
37297;SDS011;30517;51.932;4.278;2022-12-04T10:07:06;25.73;;;12.60;;
37297;SDS011;30517;51.932;4.278;2022-12-04T10:13:20;28.92;;;14.07;;
37297;SDS011;30517;51.932;4.278;2022-12-04T10:16:11;27.00;;;14.30;;
37297;SDS011;30517;51.932;4.278;2022-12-04T10:22:02;23.85;;;13.43;;
37297;SDS011;30517;51.932;4.278;2022-12-04T10:25:07;26.70;;;13.50;;
37297;SDS011;30517;51.932;4.278;2022-12-04T10:27:55;25.83;;;13.40;;
37297;SDS011;30517;51.932;4.278;2022-12-04T10:30:52;25.17;;;13.82;;
37297;SDS011;30517;51.932;4.278;2022-12-04T10:36:33;23.85;;;14.13;;
37297;SDS011;30517;51.932;4.278;2022-12-04T10:39:22;27.00;;;14.43;;
37297;SDS011;30517;51.932;4.278;2022-12-04T10:42:25;25.15;;;13.52;;
37297;SDS011;30517;51.932;4.278;2022-12-04T10:45:11;27.10;;;14.43;;
37297;SDS011;30517;51.932;4.278;2022-12-04T10:47:52;25.55;;;12.98;;
37297;SDS011;30517;51.932;4.278;2022-12-04T10:50:33;25.40;;;13.85;;
37297;SDS011;30517;51.932;4.278;2022-12-04T10:53:14;22.50;;;13.13;;
37297;SDS011;30517;51.932;4.278;2022-12-04T10:56:06;26.15;;;14.32;;
37297;SDS011;30517;51.932;4.278;2022-12-04T10:58:55;25.13;;;13.88;;
37297;SDS011;30517;51.932;4.278;2022-12-04T11:01:40;23.48;;;13.80;;
37297;SDS011;30517;51.932;4.278;2022-12-04T11:04:22;26.77;;;13.80;;
37297;SDS011;30517;51.932;4.278;2022-12-04T11:07:06;24.77;;;13.00;;
37297;SDS011;30517;51.932;4.278;2022-12-04T11:09:56;26.90;;;14.55;;
37297;SDS011;30517;51.932;4.278;2022-12-04T11:13:00;22.35;;;12.88;;
37297;SDS011;30517;51.932;4.278;2022-12-04T11:15:44;32.10;;;15.75;;
37297;SDS011;30517;51.932;4.278;2022-12-04T11:18:31;31.65;;;16.13;;
37297;SDS011;30517;51.932;4.278;2022-12-04T11:21:15;33.58;;;18.15;;
37297;SDS011;30517;51.932;4.278;2022-12-04T11:24:20;35.05;;;19.30;;
37297;SDS011;30517;51.932;4.278;2022-12-04T11:27:24;36.13;;;18.55;;
37297;SDS011;30517;51.932;4.278;2022-12-04T11:30:12;36.97;;;18.73;;
37297;SDS011;30517;51.932;4.278;2022-12-04T11:32:58;33.67;;;17.42;;
37297;SDS011;30517;51.932;4.278;2022-12-04T11:35:39;32.95;;;17.58;;
37297;SDS011;30517;51.932;4.278;2022-12-04T11:38:22;32.85;;;18.15;;
37297;SDS011;30517;51.932;4.278;2022-12-04T11:41:10;37.40;;;19.42;;
37297;SDS011;30517;51.932;4.278;2022-12-04T11:44:05;31.98;;;16.90;;
37297;SDS011;30517;51.932;4.278;2022-12-04T11:46:51;28.75;;;16.42;;
37297;SDS011;30517;51.932;4.278;2022-12-04T11:49:32;31.55;;;15.88;;
37297;SDS011;30517;51.932;4.278;2022-12-04T11:52:18;31.52;;;15.68;;
37297;SDS011;30517;51.932;4.278;2022-12-04T11:55:21;33.47;;;17.48;;
37297;SDS011;30517;51.932;4.278;2022-12-04T12:04:20;34.03;;;16.58;;
37297;SDS011;30517;51.932;4.278;2022-12-04T12:10:21;29.10;;;15.43;;
37297;SDS011;30517;51.932;4.278;2022-12-04T12:13:24;26.48;;;14.77;;
37297;SDS011;30517;51.932;4.278;2022-12-04T12:25:17;28.60;;;15.25;;
37297;SDS011;30517;51.932;4.278;2022-12-04T12:28:25;34.03;;;15.45;;
37297;SDS011;30517;51.932;4.278;2022-12-04T12:37:22;29.60;;;13.80;;
37297;SDS011;30517;51.932;4.278;2022-12-04T12:52:06;26.80;;;12.88;;
37297;SDS011;30517;51.932;4.278;2022-12-04T12:54:58;26.20;;;13.05;;
37297;SDS011;30517;51.932;4.278;2022-12-04T12:57:45;22.65;;;12.13;;
37297;SDS011;30517;51.932;4.278;2022-12-04T13:00:29;21.23;;;11.38;;
37297;SDS011;30517;51.932;4.278;2022-12-04T13:05:59;24.00;;;12.07;;
37297;SDS011;30517;51.932;4.278;2022-12-04T13:11:46;22.35;;;11.32;;
37297;SDS011;30517;51.932;4.278;2022-12-04T13:14:30;25.60;;;11.50;;
37297;SDS011;30517;51.932;4.278;2022-12-04T13:17:27;23.42;;;11.77;;
37297;SDS011;30517;51.932;4.278;2022-12-04T13:20:15;22.40;;;12.00;;
37297;SDS011;30517;51.932;4.278;2022-12-04T13:23:14;22.05;;;11.93;;
37297;SDS011;30517;51.932;4.278;2022-12-04T13:26:10;24.50;;;12.35;;
37297;SDS011;30517;51.932;4.278;2022-12-04T13:29:02;19.00;;;11.55;;
37297;SDS011;30517;51.932;4.278;2022-12-04T13:31:58;20.60;;;11.38;;
37297;SDS011;30517;51.932;4.278;2022-12-04T13:38:21;22.17;;;11.70;;
37297;SDS011;30517;51.932;4.278;2022-12-04T13:41:21;26.60;;;11.10;;
37297;SDS011;30517;51.932;4.278;2022-12-04T13:44:17;23.33;;;11.50;;
37297;SDS011;30517;51.932;4.278;2022-12-04T13:47:05;22.58;;;11.32;;
37297;SDS011;30517;51.932;4.278;2022-12-04T13:49:47;19.85;;;10.75;;
37297;SDS011;30517;51.932;4.278;2022-12-04T13:52:38;22.67;;;10.57;;
37297;SDS011;30517;51.932;4.278;2022-12-04T13:55:33;22.80;;;12.05;;
37297;SDS011;30517;51.932;4.278;2022-12-04T14:01:07;18.65;;;10.80;;
37297;SDS011;30517;51.932;4.278;2022-12-04T14:04:04;21.05;;;10.32;;
37297;SDS011;30517;51.932;4.278;2022-12-04T14:06:48;19.10;;;11.05;;
37297;SDS011;30517;51.932;4.278;2022-12-04T14:09:41;21.67;;;11.52;;
37297;SDS011;30517;51.932;4.278;2022-12-04T14:12:30;20.80;;;10.45;;
37297;SDS011;30517;51.932;4.278;2022-12-04T14:15:21;20.38;;;10.15;;
37297;SDS011;30517;51.932;4.278;2022-12-04T14:18:14;18.98;;;10.40;;
37297;SDS011;30517;51.932;4.278;2022-12-04T14:21:04;19.40;;;10.13;;
37297;SDS011;30517;51.932;4.278;2022-12-04T14:23:46;16.02;;;9.23;;
37297;SDS011;30517;51.932;4.278;2022-12-04T14:26:28;21.92;;;10.43;;
37297;SDS011;30517;51.932;4.278;2022-12-04T14:32:20;18.63;;;9.20;;
37297;SDS011;30517;51.932;4.278;2022-12-04T14:35:04;18.80;;;9.25;;
37297;SDS011;30517;51.932;4.278;2022-12-04T14:37:51;17.85;;;10.02;;
37297;SDS011;30517;51.932;4.278;2022-12-04T14:40:37;18.67;;;9.57;;
37297;SDS011;30517;51.932;4.278;2022-12-04T14:43:23;19.45;;;10.27;;
37297;SDS011;30517;51.932;4.278;2022-12-04T14:46:22;18.98;;;10.27;;
37297;SDS011;30517;51.932;4.278;2022-12-04T14:49:16;17.07;;;9.47;;
37297;SDS011;30517;51.932;4.278;2022-12-04T14:52:00;20.23;;;10.30;;
37297;SDS011;30517;51.932;4.278;2022-12-04T14:54:54;16.60;;;8.82;;
37297;SDS011;30517;51.932;4.278;2022-12-04T15:00:38;19.83;;;10.02;;
37297;SDS011;30517;51.932;4.278;2022-12-04T15:03:30;14.27;;;8.93;;
37297;SDS011;30517;51.932;4.278;2022-12-04T15:06:20;15.70;;;8.52;;
37297;SDS011;30517;51.932;4.278;2022-12-04T15:09:12;14.18;;;8.52;;
37297;SDS011;30517;51.932;4.278;2022-12-04T15:12:20;20.60;;;8.73;;
37297;SDS011;30517;51.932;4.278;2022-12-04T15:15:23;14.93;;;8.98;;
37297;SDS011;30517;51.932;4.278;2022-12-04T15:18:10;14.68;;;8.35;;
37297;SDS011;30517;51.932;4.278;2022-12-04T15:20:55;17.25;;;8.85;;
37297;SDS011;30517;51.932;4.278;2022-12-04T15:23:39;16.48;;;8.27;;
37297;SDS011;30517;51.932;4.278;2022-12-04T15:26:21;15.55;;;8.90;;
37297;SDS011;30517;51.932;4.278;2022-12-04T15:29:05;15.70;;;8.30;;
37297;SDS011;30517;51.932;4.278;2022-12-04T15:31:49;16.20;;;8.73;;
37297;SDS011;30517;51.932;4.278;2022-12-04T15:34:45;13.95;;;8.18;;
37297;SDS011;30517;51.932;4.278;2022-12-04T15:37:29;15.75;;;7.88;;
37297;SDS011;30517;51.932;4.278;2022-12-04T15:40:13;14.57;;;8.35;;
37297;SDS011;30517;51.932;4.278;2022-12-04T15:43:10;13.82;;;7.15;;
37297;SDS011;30517;51.932;4.278;2022-12-04T15:45:56;15.35;;;8.95;;
37297;SDS011;30517;51.932;4.278;2022-12-04T15:48:37;15.02;;;8.48;;
37297;SDS011;30517;51.932;4.278;2022-12-04T15:51:19;15.13;;;7.72;;
37297;SDS011;30517;51.932;4.278;2022-12-04T15:54:00;16.00;;;8.90;;
37297;SDS011;30517;51.932;4.278;2022-12-04T15:56:42;15.15;;;8.27;;
37297;SDS011;30517;51.932;4.278;2022-12-04T15:59:23;17.50;;;8.48;;
37297;SDS011;30517;51.932;4.278;2022-12-04T16:02:21;13.57;;;7.32;;
37297;SDS011;30517;51.932;4.278;2022-12-04T16:08:02;12.82;;;7.38;;
37297;SDS011;30517;51.932;4.278;2022-12-04T16:14:12;14.30;;;8.05;;
37297;SDS011;30517;51.932;4.278;2022-12-04T16:16:55;12.98;;;7.45;;
37297;SDS011;30517;51.932;4.278;2022-12-04T16:19:39;13.50;;;8.10;;
37297;SDS011;30517;51.932;4.278;2022-12-04T16:22:21;14.05;;;7.78;;
37297;SDS011;30517;51.932;4.278;2022-12-04T16:25:03;13.57;;;7.00;;
37297;SDS011;30517;51.932;4.278;2022-12-04T16:27:44;12.73;;;8.27;;
37297;SDS011;30517;51.932;4.278;2022-12-04T16:30:25;14.95;;;8.02;;
37297;SDS011;30517;51.932;4.278;2022-12-04T16:33:13;12.57;;;7.07;;
37297;SDS011;30517;51.932;4.278;2022-12-04T16:35:57;16.33;;;8.70;;
37297;SDS011;30517;51.932;4.278;2022-12-04T16:38:38;14.20;;;7.88;;
37297;SDS011;30517;51.932;4.278;2022-12-04T16:41:19;15.57;;;8.10;;
37297;SDS011;30517;51.932;4.278;2022-12-04T16:44:00;14.77;;;7.75;;
37297;SDS011;30517;51.932;4.278;2022-12-04T16:46:41;15.23;;;8.20;;
37297;SDS011;30517;51.932;4.278;2022-12-04T16:49:23;14.82;;;7.72;;
37297;SDS011;30517;51.932;4.278;2022-12-04T16:52:04;11.88;;;7.43;;
37297;SDS011;30517;51.932;4.278;2022-12-04T16:54:49;13.35;;;7.57;;
37297;SDS011;30517;51.932;4.278;2022-12-04T16:57:30;12.60;;;7.55;;
37297;SDS011;30517;51.932;4.278;2022-12-04T17:00:12;15.23;;;7.05;;
37297;SDS011;30517;51.932;4.278;2022-12-04T17:02:57;14.10;;;8.52;;
37297;SDS011;30517;51.932;4.278;2022-12-04T17:05:37;14.95;;;7.35;;
37297;SDS011;30517;51.932;4.278;2022-12-04T17:08:18;13.77;;;8.25;;
37297;SDS011;30517;51.932;4.278;2022-12-04T17:10:59;12.98;;;7.53;;
37297;SDS011;30517;51.932;4.278;2022-12-04T17:13:40;14.25;;;8.45;;
37297;SDS011;30517;51.932;4.278;2022-12-04T17:16:21;13.00;;;8.07;;
37297;SDS011;30517;51.932;4.278;2022-12-04T17:19:03;15.85;;;7.90;;
37297;SDS011;30517;51.932;4.278;2022-12-04T17:21:44;13.30;;;7.68;;
37297;SDS011;30517;51.932;4.278;2022-12-04T17:24:26;14.50;;;8.55;;
37297;SDS011;30517;51.932;4.278;2022-12-04T17:27:07;15.77;;;7.70;;
37297;SDS011;30517;51.932;4.278;2022-12-04T17:29:51;13.25;;;7.85;;
37297;SDS011;30517;51.932;4.278;2022-12-04T17:32:32;16.08;;;8.38;;
37297;SDS011;30517;51.932;4.278;2022-12-04T17:35:14;13.88;;;8.63;;
37297;SDS011;30517;51.932;4.278;2022-12-04T17:37:55;14.30;;;8.25;;
37297;SDS011;30517;51.932;4.278;2022-12-04T17:40:36;14.38;;;8.48;;
37297;SDS011;30517;51.932;4.278;2022-12-04T17:43:16;14.48;;;8.05;;
37297;SDS011;30517;51.932;4.278;2022-12-04T17:45:57;15.00;;;8.77;;
37297;SDS011;30517;51.932;4.278;2022-12-04T17:48:39;14.18;;;9.07;;
37297;SDS011;30517;51.932;4.278;2022-12-04T17:51:20;14.20;;;8.38;;
37297;SDS011;30517;51.932;4.278;2022-12-04T17:54:02;13.23;;;8.60;;
37297;SDS011;30517;51.932;4.278;2022-12-04T17:56:44;15.05;;;9.10;;
37297;SDS011;30517;51.932;4.278;2022-12-04T17:59:25;15.18;;;9.48;;
37297;SDS011;30517;51.932;4.278;2022-12-04T18:02:07;14.23;;;8.73;;
37297;SDS011;30517;51.932;4.278;2022-12-04T18:04:49;18.00;;;9.25;;
37297;SDS011;30517;51.932;4.278;2022-12-04T18:07:29;15.80;;;8.85;;